Time;durP1;ratioP1;P1;durP2;ratioP2;P2;SDS_P1;SDS_P2;PMS_P1;PMS_P2;Temp;Humidity;BMP_temperature;BMP_pressure;BME280_temperature;BME280_humidity;BME280_pressure;Samples;Min_cycle;Max_cycle;Signal;HPM_P1;HPM_P2
2022/03/14 00:00:13;;;;;;;2.03;1.15;;;;;;;;;;5055950;28;20047;-71
2022/03/14 00:02:40;;;;;;;3.40;1.33;;;;;;;;;;5072167;28;20100;-76
2022/03/14 00:05:08;;;;;;;2.30;1.30;;;;;;;;;;5071891;28;20046;-74
2022/03/14 00:07:36;;;;;;;3.70;1.10;;;;;;;;;;5066472;28;20111;-76
2022/03/14 00:10:07;;;;;;;6.95;1.33;;;;;;;;;;5047032;28;20033;-74
2022/03/14 00:12:34;;;;;;;2.72;1.42;;;;;;;;;;5046935;28;20044;-75
2022/03/14 00:15:03;;;;;;;4.70;1.50;;;;;;;;;;5047155;28;20035;-77
2022/03/14 00:17:30;;;;;;;2.65;1.10;;;;;;;;;;5048240;28;20031;-73
2022/03/14 00:20:04;;;;;;;4.20;1.20;;;;;;;;;;5069247;28;20043;-76
2022/03/14 00:22:31;;;;;;;2.17;1.27;;;;;;;;;;5067092;28;20021;-73
2022/03/14 00:24:58;;;;;;;5.82;1.40;;;;;;;;;;5051616;28;20028;-72
2022/03/14 00:27:25;;;;;;;3.63;1.47;;;;;;;;;;5051893;28;20047;-74
2022/03/14 00:29:52;;;;;;;10.77;1.83;;;;;;;;;;5050296;28;20092;-72
2022/03/14 00:32:19;;;;;;;5.40;1.60;;;;;;;;;;5057565;28;20120;-73
2022/03/14 00:34:45;;;;;;;5.63;1.57;;;;;;;;;;5031440;28;20022;-75
2022/03/14 00:37:12;;;;;;;7.10;1.87;;;;;;;;;;5038779;28;20044;-76
2022/03/14 00:39:40;;;;;;;4.27;1.47;;;;;;;;;;5051683;28;20064;-74
2022/03/14 00:42:07;;;;;;;4.53;1.93;;;;;;;;;;5055292;28;20021;-72
2022/03/14 00:44:34;;;;;;;4.10;1.80;;;;;;;;;;5057568;28;20477;-73
2022/03/14 00:47:00;;;;;;;3.93;1.77;;;;;;;;;;5075577;28;20380;-75
2022/03/14 00:49:27;;;;;;;5.37;1.53;;;;;;;;;;5075899;28;20027;-76
2022/03/14 00:51:54;;;;;;;5.20;1.20;;;;;;;;;;5074975;28;20475;-76
2022/03/14 00:54:21;;;;;;;2.90;1.50;;;;;;;;;;5059201;28;20430;-74
2022/03/14 00:56:47;;;;;;;6.87;1.40;;;;;;;;;;5050811;28;20048;-71
2022/03/14 00:59:14;;;;;;;3.70;1.30;;;;;;;;;;5050614;28;20029;-76
2022/03/14 01:01:41;;;;;;;6.13;1.30;;;;;;;;;;5054782;28;20483;-74
2022/03/14 01:04:08;;;;;;;4.87;1.10;;;;;;;;;;5075222;28;20048;-74
2022/03/14 01:06:35;;;;;;;6.53;1.60;;;;;;;;;;5068173;28;20032;-72
2022/03/14 01:09:02;;;;;;;9.90;2.63;;;;;;;;;;5055202;28;20389;-72
2022/03/14 01:11:29;;;;;;;4.47;2.10;;;;;;;;;;5054904;28;20040;-71
2022/03/14 01:13:55;;;;;;;3.53;1.30;;;;;;;;;;5054730;28;20028;-72
2022/03/14 01:16:22;;;;;;;6.77;2.20;;;;;;;;;;5049400;28;20033;-71
2022/03/14 01:18:49;;;;;;;6.60;2.13;;;;;;;;;;5050081;28;20480;-71
2022/03/14 01:21:16;;;;;;;9.97;1.83;;;;;;;;;;5049783;28;20053;-72
2022/03/14 01:23:42;;;;;;;4.13;2.60;;;;;;;;;;5049733;28;20538;-71
2022/03/14 01:26:09;;;;;;;13.17;7.00;;;;;;;;;;5066016;28;20055;-72
2022/03/14 01:28:36;;;;;;;13.93;7.77;;;;;;;;;;5051415;28;20031;-73
2022/03/14 01:31:04;;;;;;;12.63;6.70;;;;;;;;;;5054472;28;20479;-79
2022/03/14 01:33:30;;;;;;;11.13;5.77;;;;;;;;;;5059932;28;20087;-80
2022/03/14 01:35:57;;;;;;;8.60;4.27;;;;;;;;;;5074734;28;20032;-72
2022/03/14 01:38:24;;;;;;;9.57;5.27;;;;;;;;;;5069510;28;20383;-75
2022/03/14 01:40:51;;;;;;;9.63;5.07;;;;;;;;;;5058841;28;20029;-75
2022/03/14 01:43:18;;;;;;;13.57;5.13;;;;;;;;;;5049649;28;20063;-78
2022/03/14 01:45:46;;;;;;;11.97;5.20;;;;;;;;;;5063059;28;20039;-76
2022/03/14 01:48:13;;;;;;;7.80;3.80;;;;;;;;;;5071380;28;20037;-79
2022/03/14 01:50:40;;;;;;;8.23;2.90;;;;;;;;;;5073627;28;20029;-77
2022/03/14 01:53:07;;;;;;;9.87;2.43;;;;;;;;;;5073964;28;20044;-72
2022/03/14 01:55:34;;;;;;;3.90;1.90;;;;;;;;;;5067082;28;20032;-72
2022/03/14 01:58:03;;;;;;;5.00;1.57;;;;;;;;;;5058648;28;20029;-72
2022/03/14 02:00:31;;;;;;;6.20;1.97;;;;;;;;;;5069396;28;20170;-72
2022/03/14 02:02:58;;;;;;;7.10;2.03;;;;;;;;;;5061650;28;20032;-72
2022/03/14 02:05:27;;;;;;;5.93;2.00;;;;;;;;;;5048856;28;20036;-72
2022/03/14 02:07:56;;;;;;;7.87;1.83;;;;;;;;;;5052539;28;20430;-72
2022/03/14 02:10:23;;;;;;;6.23;1.90;;;;;;;;;;5072949;28;20052;-72
2022/03/14 02:12:50;;;;;;;3.67;1.67;;;;;;;;;;5073159;28;20122;-72
2022/03/14 02:15:17;;;;;;;4.10;1.30;;;;;;;;;;5074073;28;20016;-72
2022/03/14 02:17:44;;;;;;;6.70;1.73;;;;;;;;;;5073761;28;20107;-72
2022/03/14 02:20:11;;;;;;;6.40;2.03;;;;;;;;;;5073355;28;20541;-73
2022/03/14 02:22:38;;;;;;;4.23;1.37;;;;;;;;;;5069514;28;20023;-72
2022/03/14 02:25:10;;;;;;;11.17;2.00;;;;;;;;;;5063280;28;20028;-72
2022/03/14 02:27:37;;;;;;;5.63;2.10;;;;;;;;;;5048685;28;20095;-72
2022/03/14 02:30:05;;;;;;;4.90;2.27;;;;;;;;;;5048399;28;20086;-72
2022/03/14 02:32:33;;;;;;;5.57;1.90;;;;;;;;;;5055073;28;20023;-72
2022/03/14 02:35:00;;;;;;;5.13;1.43;;;;;;;;;;5070190;28;20067;-72
2022/03/14 02:37:27;;;;;;;7.13;1.80;;;;;;;;;;5073184;28;20541;-72
2022/03/14 02:39:54;;;;;;;5.13;2.07;;;;;;;;;;5073271;28;20036;-72
2022/03/14 02:42:21;;;;;;;4.00;1.77;;;;;;;;;;5073037;28;20562;-72
2022/03/14 02:44:48;;;;;;;6.97;2.30;;;;;;;;;;5069456;28;20028;-72
2022/03/14 02:47:15;;;;;;;8.40;2.37;;;;;;;;;;5066564;28;20029;-72
2022/03/14 02:49:42;;;;;;;6.03;1.93;;;;;;;;;;5058350;28;20028;-72
2022/03/14 02:52:09;;;;;;;4.17;2.07;;;;;;;;;;5067558;28;20028;-72
2022/03/14 02:54:36;;;;;;;5.30;1.93;;;;;;;;;;5070835;28;20029;-72
2022/03/14 02:57:05;;;;;;;7.40;1.90;;;;;;;;;;5053787;28;20407;-72
2022/03/14 02:59:32;;;;;;;13.37;2.50;;;;;;;;;;5052996;28;20021;-72
2022/03/14 03:01:59;;;;;;;7.37;2.33;;;;;;;;;;5052365;28;20532;-72
2022/03/14 03:04:26;;;;;;;9.87;2.47;;;;;;;;;;5071023;28;20114;-72
2022/03/14 03:06:54;;;;;;;6.23;2.00;;;;;;;;;;5063123;28;20035;-72
2022/03/14 03:09:22;;;;;;;7.93;1.90;;;;;;;;;;5047688;28;20785;-73
2022/03/14 03:11:49;;;;;;;8.33;2.27;;;;;;;;;;5047644;28;20021;-72
2022/03/14 03:14:18;;;;;;;5.13;2.10;;;;;;;;;;5048184;28;20020;-71
2022/03/14 03:16:45;;;;;;;6.23;2.10;;;;;;;;;;5050813;28;20442;-72
2022/03/14 03:19:12;;;;;;;4.80;2.07;;;;;;;;;;5055883;28;20021;-72
2022/03/14 03:21:39;;;;;;;6.03;2.00;;;;;;;;;;5070259;28;20024;-72
2022/03/14 03:24:12;;;;;;;5.27;1.97;;;;;;;;;;5072401;28;20783;-71
2022/03/14 03:26:40;;;;;;;4.13;1.70;;;;;;;;;;5060692;28;21481;-72
2022/03/14 03:29:09;;;;;;;5.47;2.03;;;;;;;;;;5049250;28;20037;-72
2022/03/14 03:31:36;;;;;;;4.43;2.20;;;;;;;;;;5054804;28;20094;-73
2022/03/14 03:34:03;;;;;;;8.63;2.47;;;;;;;;;;5065445;28;20070;-72
2022/03/14 03:36:30;;;;;;;6.33;2.50;;;;;;;;;;5063204;28;20031;-72
2022/03/14 03:38:58;;;;;;;10.70;2.60;;;;;;;;;;5053926;28;20035;-70
2022/03/14 03:41:27;;;;;;;9.43;2.63;;;;;;;;;;5047881;28;20020;-70
2022/03/14 03:43:59;;;;;;;9.33;3.67;;;;;;;;;;5043531;28;20032;-70
2022/03/14 03:46:29;;;;;;;7.30;2.73;;;;;;;;;;5032694;28;20473;-70
2022/03/14 03:48:58;;;;;;;4.67;2.47;;;;;;;;;;5042308;28;20034;-71
2022/03/14 03:51:27;;;;;;;13.80;2.77;;;;;;;;;;5028712;28;20037;-70
2022/03/14 03:53:56;;;;;;;7.93;2.40;;;;;;;;;;5027376;28;20035;-71
2022/03/14 03:56:24;;;;;;;5.87;2.07;;;;;;;;;;5040894;28;20032;-71
2022/03/14 03:58:55;;;;;;;5.30;1.93;;;;;;;;;;5028675;28;20021;-70
2022/03/14 04:01:29;;;;;;;5.03;1.97;;;;;;;;;;5030371;28;20057;-70
2022/03/14 04:04:07;;;;;;;6.78;2.47;;;;;;;;;;5031996;28;20019;-70
2022/03/14 04:06:39;;;;;;;3.40;1.73;;;;;;;;;;5032378;28;20381;-70
2022/03/14 04:09:09;;;;;;;10.70;2.50;;;;;;;;;;5032447;28;20048;-70
2022/03/14 04:11:42;;;;;;;4.27;1.87;;;;;;;;;;5033188;28;20503;-70
2022/03/14 04:14:22;;;;;;;4.30;1.87;;;;;;;;;;5043691;28;20042;-70
2022/03/14 04:16:53;;;;;;;4.97;2.53;;;;;;;;;;5033955;28;20040;-71
2022/03/14 04:19:22;;;;;;;4.27;1.77;;;;;;;;;;5034057;28;20437;-70
2022/03/14 04:21:52;;;;;;;6.23;1.90;;;;;;;;;;5033738;28;20128;-70
2022/03/14 04:24:36;;;;;;;9.67;2.77;;;;;;;;;;5038486;28;20022;-70
2022/03/14 04:27:05;;;;;;;4.27;2.03;;;;;;;;;;5038942;28;20033;-70
2022/03/14 04:29:33;;;;;;;5.50;2.00;;;;;;;;;;5038611;28;20025;-71
2022/03/14 04:32:02;;;;;;;12.07;2.53;;;;;;;;;;5045594;28;20483;-71
2022/03/14 04:34:35;;;;;;;12.33;2.30;;;;;;;;;;5078401;28;20032;-70
2022/03/14 04:37:07;;;;;;;5.40;2.07;;;;;;;;;;5073249;28;20028;-70
2022/03/14 04:39:36;;;;;;;3.53;1.70;;;;;;;;;;5073739;28;20132;-70
2022/03/14 04:42:05;;;;;;;3.77;1.70;;;;;;;;;;5073733;28;20100;-70
2022/03/14 04:44:34;;;;;;;4.80;1.60;;;;;;;;;;5073833;28;20066;-70
2022/03/14 04:47:03;;;;;;;4.73;1.63;;;;;;;;;;5074975;28;20017;-70
2022/03/14 04:49:37;;;;;;;5.93;1.67;;;;;;;;;;5044182;28;20028;-70
2022/03/14 04:52:11;;;;;;;5.03;1.97;;;;;;;;;;5038582;28;20033;-70
2022/03/14 04:54:42;;;;;;;4.50;1.90;;;;;;;;;;5038457;28;20025;-70
2022/03/14 04:57:13;;;;;;;5.13;1.67;;;;;;;;;;5042680;28;20021;-69
2022/03/14 04:59:42;;;;;;;9.43;3.00;;;;;;;;;;5053470;28;20114;-71
2022/03/14 05:02:10;;;;;;;9.27;1.80;;;;;;;;;;5052976;28;20424;-71
2022/03/14 05:04:42;;;;;;;5.17;1.87;;;;;;;;;;5053489;28;20096;-70
2022/03/14 05:07:13;;;;;;;6.70;1.60;;;;;;;;;;5054534;28;20494;-68
2022/03/14 05:09:39;;;;;;;4.67;1.83;;;;;;;;;;5058202;28;20100;-72
2022/03/14 05:12:06;;;;;;;7.53;1.83;;;;;;;;;;5058445;28;20033;-72
2022/03/14 05:14:34;;;;;;;3.30;1.77;;;;;;;;;;5058132;28;20025;-71
2022/03/14 05:17:01;;;;;;;7.57;1.77;;;;;;;;;;5058266;28;20396;-72
2022/03/14 05:19:28;;;;;;;5.43;1.40;;;;;;;;;;5056727;28;20021;-70
2022/03/14 05:21:55;;;;;;;5.47;1.17;;;;;;;;;;5053197;28;20029;-69
2022/03/14 05:24:21;;;;;;;4.87;1.40;;;;;;;;;;5050501;28;20028;-68
2022/03/14 05:26:49;;;;;;;4.00;1.27;;;;;;;;;;5051145;28;20074;-70
2022/03/14 05:29:15;;;;;;;4.23;1.30;;;;;;;;;;5070735;28;20024;-66
2022/03/14 05:31:42;;;;;;;7.83;1.70;;;;;;;;;;5074491;28;20044;-72
2022/03/14 05:34:09;;;;;;;4.87;1.30;;;;;;;;;;5075106;28;20021;-69
2022/03/14 05:36:37;;;;;;;5.90;1.67;;;;;;;;;;5074465;28;20028;-69
2022/03/14 05:39:07;;;;;;;11.40;1.87;;;;;;;;;;5074844;28;20035;-68
2022/03/14 05:41:34;;;;;;;2.73;1.27;;;;;;;;;;5073729;28;20013;-71
2022/03/14 05:44:00;;;;;;;5.83;1.73;;;;;;;;;;5068636;28;20036;-70
2022/03/14 05:46:27;;;;;;;3.03;1.33;;;;;;;;;;5068205;28;20472;-71
2022/03/14 05:48:54;;;;;;;2.63;1.20;;;;;;;;;;5064055;28;20119;-72
2022/03/14 05:51:21;;;;;;;5.77;1.50;;;;;;;;;;5055000;28;20622;-72
2022/03/14 05:53:47;;;;;;;4.10;1.03;;;;;;;;;;5053886;28;20053;-71
2022/03/14 05:56:14;;;;;;;2.87;1.20;;;;;;;;;;5054490;28;20032;-71
2022/03/14 05:58:41;;;;;;;6.13;1.40;;;;;;;;;;5054320;28;20045;-72
2022/03/14 06:01:07;;;;;;;3.60;1.33;;;;;;;;;;5054373;28;20428;-72
2022/03/14 06:03:34;;;;;;;3.27;1.40;;;;;;;;;;5053285;28;20021;-71
2022/03/14 06:06:02;;;;;;;1.80;1.10;;;;;;;;;;5049082;28;20021;-72
2022/03/14 06:08:29;;;;;;;3.27;1.57;;;;;;;;;;5049077;28;20036;-71
2022/03/14 06:10:55;;;;;;;5.13;1.50;;;;;;;;;;5048785;28;20091;-72
2022/03/14 06:13:23;;;;;;;3.30;1.30;;;;;;;;;;5049091;28;20017;-71
2022/03/14 06:15:49;;;;;;;2.13;1.03;;;;;;;;;;5054069;28;20102;-71
2022/03/14 06:18:16;;;;;;;2.20;0.80;;;;;;;;;;5054100;28;20035;-72
2022/03/14 06:20:43;;;;;;;3.50;1.30;;;;;;;;;;5053642;28;20028;-71
2022/03/14 06:23:09;;;;;;;2.57;1.23;;;;;;;;;;5053982;28;20029;-71
2022/03/14 06:25:37;;;;;;;2.17;1.10;;;;;;;;;;5053821;28;20104;-71
2022/03/14 06:28:03;;;;;;;2.97;1.20;;;;;;;;;;5048537;28;20029;-71
2022/03/14 06:30:30;;;;;;;2.07;0.97;;;;;;;;;;5048708;28;20131;-72
2022/03/14 06:32:57;;;;;;;5.00;1.80;;;;;;;;;;5048617;28;20488;-71
2022/03/14 06:35:24;;;;;;;3.47;1.43;;;;;;;;;;5046878;28;20035;-71
2022/03/14 06:37:51;;;;;;;2.93;1.27;;;;;;;;;;5053174;28;20039;-71
2022/03/14 06:40:18;;;;;;;3.13;1.80;;;;;;;;;;5063574;28;20067;-71
2022/03/14 06:42:50;;;;;;;1.17;0.80;;;;;;;;;;5072231;28;20394;-71
2022/03/14 06:45:22;;;;;;;2.17;1.17;;;;;;;;;;5073334;28;20013;-71
2022/03/14 06:47:49;;;;;;;1.87;1.00;;;;;;;;;;5073335;28;20171;-71
2022/03/14 06:50:16;;;;;;;4.80;1.23;;;;;;;;;;5067804;28;20063;-72
2022/03/14 06:52:43;;;;;;;2.10;1.10;;;;;;;;;;5068184;28;20027;-72
2022/03/14 06:55:10;;;;;;;3.30;1.17;;;;;;;;;;5068259;28;20033;-72
2022/03/14 06:57:38;;;;;;;2.57;1.10;;;;;;;;;;5068120;28;20055;-72
2022/03/14 07:00:06;;;;;;;1.63;1.10;;;;;;;;;;5072853;28;20071;-71
2022/03/14 07:02:34;;;;;;;3.50;1.30;;;;;;;;;;5073104;28;20066;-72
2022/03/14 07:05:00;;;;;;;3.47;1.17;;;;;;;;;;5072712;28;20112;-71
2022/03/14 07:07:27;;;;;;;4.73;1.20;;;;;;;;;;5072996;28;20035;-71
2022/03/14 07:09:54;;;;;;;1.97;1.13;;;;;;;;;;5055046;28;20033;-71
2022/03/14 07:12:21;;;;;;;2.27;1.20;;;;;;;;;;5047837;28;20028;-72
2022/03/14 07:14:48;;;;;;;3.47;1.20;;;;;;;;;;5047757;28;20025;-71
2022/03/14 07:17:14;;;;;;;3.27;1.47;;;;;;;;;;5047698;28;20029;-71
2022/03/14 07:19:45;;;;;;;4.63;1.87;;;;;;;;;;5047539;28;20029;-71
2022/03/14 07:22:19;;;;;;;3.47;1.40;;;;;;;;;;5052200;28;20028;-71
2022/03/14 07:24:47;;;;;;;5.93;1.40;;;;;;;;;;5052840;28;20075;-71
2022/03/14 07:27:14;;;;;;;5.27;1.77;;;;;;;;;;5052671;28;20488;-71
2022/03/14 07:29:41;;;;;;;3.43;1.63;;;;;;;;;;5052645;28;20029;-71
2022/03/14 07:32:08;;;;;;;6.57;1.70;;;;;;;;;;5052606;28;20556;-71
2022/03/14 07:34:35;;;;;;;5.93;1.67;;;;;;;;;;5047100;28;20111;-72
2022/03/14 07:37:01;;;;;;;3.60;1.43;;;;;;;;;;5047470;28;20036;-71
2022/03/14 07:39:29;;;;;;;5.47;1.97;;;;;;;;;;5059838;28;20464;-72
2022/03/14 07:41:56;;;;;;;4.30;1.90;;;;;;;;;;5067364;28;20475;-71
2022/03/14 07:44:23;;;;;;;4.67;2.00;;;;;;;;;;5071901;28;20021;-71
2022/03/14 07:46:50;;;;;;;3.30;1.63;;;;;;;;;;5072058;28;20040;-71
2022/03/14 07:49:17;;;;;;;7.10;1.93;;;;;;;;;;5072345;28;20032;-72
2022/03/14 07:51:43;;;;;;;6.30;1.60;;;;;;;;;;5072090;28;20426;-72
2022/03/14 07:54:10;;;;;;;9.60;1.90;;;;;;;;;;5072249;28;20028;-72
2022/03/14 07:56:37;;;;;;;4.27;1.90;;;;;;;;;;5067399;28;20048;-71
2022/03/14 07:59:04;;;;;;;4.87;2.00;;;;;;;;;;5067133;28;20054;-71
2022/03/14 08:01:30;;;;;;;8.27;1.80;;;;;;;;;;5066995;28;20032;-71
2022/03/14 08:03:57;;;;;;;5.80;1.67;;;;;;;;;;5067187;28;20031;-71
2022/03/14 08:06:24;;;;;;;3.00;1.80;;;;;;;;;;5070730;28;20024;-71
2022/03/14 08:08:53;;;;;;;4.97;1.90;;;;;;;;;;5060985;28;20112;-71
2022/03/14 08:11:20;;;;;;;4.57;1.57;;;;;;;;;;5051804;28;20464;-71
2022/03/14 08:13:46;;;;;;;3.40;1.47;;;;;;;;;;5052201;28;20418;-71
2022/03/14 08:16:13;;;;;;;5.17;1.90;;;;;;;;;;5052123;28;20036;-71
2022/03/14 08:18:40;;;;;;;4.30;1.50;;;;;;;;;;5047684;28;20383;-71
2022/03/14 08:21:07;;;;;;;3.83;1.90;;;;;;;;;;5046944;28;20456;-71
2022/03/14 08:23:35;;;;;;;6.20;1.87;;;;;;;;;;5046639;28;20021;-71
2022/03/14 08:26:02;;;;;;;5.10;1.60;;;;;;;;;;5046776;28;20452;-71
2022/03/14 08:28:30;;;;;;;4.23;1.50;;;;;;;;;;5050294;28;20021;-71
2022/03/14 08:30:57;;;;;;;2.80;1.30;;;;;;;;;;5056871;28;20037;-72
2022/03/14 08:33:24;;;;;;;3.93;1.23;;;;;;;;;;5071957;28;20429;-71
2022/03/14 08:35:51;;;;;;;3.43;1.80;;;;;;;;;;5072099;28;20024;-72
2022/03/14 08:38:18;;;;;;;4.20;1.20;;;;;;;;;;5071524;28;20059;-71
2022/03/14 08:40:44;;;;;;;6.00;1.60;;;;;;;;;;5067797;28;20025;-71
2022/03/14 08:43:11;;;;;;;2.47;1.20;;;;;;;;;;5064217;28;20482;-71
2022/03/14 08:45:43;;;;;;;4.17;1.97;;;;;;;;;;5046442;28;20025;-71
2022/03/14 08:48:11;;;;;;;3.73;1.13;;;;;;;;;;5046726;28;20060;-71
2022/03/14 08:50:38;;;;;;;4.67;1.50;;;;;;;;;;5050262;28;20041;-71
2022/03/14 08:53:05;;;;;;;3.00;1.30;;;;;;;;;;5051242;28;20174;-71
2022/03/14 08:55:32;;;;;;;3.50;1.10;;;;;;;;;;5051809;28;20029;-71
2022/03/14 08:57:59;;;;;;;2.33;1.10;;;;;;;;;;5052075;28;20472;-71
2022/03/14 09:00:27;;;;;;;4.47;1.60;;;;;;;;;;5055374;28;20036;-71
2022/03/14 09:02:55;;;;;;;3.30;1.63;;;;;;;;;;5051487;28;20266;-72
2022/03/14 09:05:22;;;;;;;4.93;2.10;;;;;;;;;;5050279;28;20282;-71
2022/03/14 09:07:49;;;;;;;3.73;1.23;;;;;;;;;;5050281;28;20262;-70
2022/03/14 09:10:17;;;;;;;3.60;1.20;;;;;;;;;;5049822;28;20286;-71
2022/03/14 09:12:44;;;;;;;2.27;1.20;;;;;;;;;;5053480;28;20269;-71
2022/03/14 09:15:11;;;;;;;4.43;2.00;;;;;;;;;;5055370;28;20246;-71
2022/03/14 09:17:47;;;;;;;2.67;1.40;;;;;;;;;;5055284;28;20079;-71
2022/03/14 09:20:15;;;;;;;1.73;1.17;;;;;;;;;;5054914;28;20025;-71
2022/03/14 09:22:44;;;;;;;4.37;1.73;;;;;;;;;;5054799;28;20340;-71
2022/03/14 09:25:11;;;;;;;3.57;1.37;;;;;;;;;;5050750;28;20285;-71
2022/03/14 09:27:38;;;;;;;3.27;1.43;;;;;;;;;;5049814;28;20254;-71
2022/03/14 09:30:05;;;;;;;4.23;1.27;;;;;;;;;;5066071;28;20300;-71
2022/03/14 09:32:31;;;;;;;3.27;1.60;;;;;;;;;;5069649;28;20265;-71
2022/03/14 09:34:59;;;;;;;2.83;1.63;;;;;;;;;;5073279;28;20265;-71
2022/03/14 09:37:26;;;;;;;4.53;1.63;;;;;;;;;;5074250;28;20269;-71
2022/03/14 09:39:53;;;;;;;3.60;1.50;;;;;;;;;;5074856;28;20754;-71
2022/03/14 09:42:23;;;;;;;6.23;1.30;;;;;;;;;;5074819;28;20261;-71
2022/03/14 09:44:53;;;;;;;3.23;1.40;;;;;;;;;;5074881;28;20261;-71
2022/03/14 09:47:22;;;;;;;3.90;1.90;;;;;;;;;;5070566;28;20272;-71
2022/03/14 09:49:49;;;;;;;2.63;1.47;;;;;;;;;;5069236;28;20265;-71
2022/03/14 09:52:17;;;;;;;5.07;1.57;;;;;;;;;;5069285;28;20268;-71
2022/03/14 09:54:43;;;;;;;4.73;1.50;;;;;;;;;;5051220;28;20837;-71
2022/03/14 09:57:10;;;;;;;4.70;1.67;;;;;;;;;;5052794;28;20315;-72
2022/03/14 09:59:39;;;;;;;4.93;1.97;;;;;;;;;;5054452;28;20258;-71
2022/03/14 10:02:07;;;;;;;4.07;1.60;;;;;;;;;;5054346;28;20266;-71
2022/03/14 10:04:34;;;;;;;3.47;1.73;;;;;;;;;;5054246;28;20273;-71
2022/03/14 10:07:00;;;;;;;4.17;1.43;;;;;;;;;;5054153;28;20250;-71
2022/03/14 10:09:27;;;;;;;5.70;1.73;;;;;;;;;;5049877;28;20725;-71
2022/03/14 10:11:56;;;;;;;3.23;1.80;;;;;;;;;;5049730;28;20297;-71
2022/03/14 10:14:23;;;;;;;6.40;1.80;;;;;;;;;;5049022;28;20376;-72
2022/03/14 10:16:56;;;;;;;3.10;1.70;;;;;;;;;;5048786;28;20280;-71
2022/03/14 10:19:34;;;;;;;6.10;1.70;;;;;;;;;;5052189;28;20741;-71
2022/03/14 10:22:14;;;;;;;4.43;1.63;;;;;;;;;;5057411;28;20270;-71
2022/03/14 10:24:41;;;;;;;3.30;1.37;;;;;;;;;;5073925;28;20744;-71
2022/03/14 10:27:08;;;;;;;7.03;1.70;;;;;;;;;;5073834;28;20245;-71
2022/03/14 10:29:36;;;;;;;3.67;1.47;;;;;;;;;;5073849;28;20599;-71
2022/03/14 10:32:06;;;;;;;3.57;1.93;;;;;;;;;;5068830;28;20399;-71
2022/03/14 10:34:32;;;;;;;2.83;1.40;;;;;;;;;;5068700;28;20268;-71
2022/03/14 10:36:59;;;;;;;3.30;1.60;;;;;;;;;;5068528;28;20257;-71
2022/03/14 10:39:27;;;;;;;3.67;1.20;;;;;;;;;;5068199;28;20268;-71
2022/03/14 10:42:07;;;;;;;8.33;3.00;;;;;;;;;;5072746;28;20250;-71
2022/03/14 10:44:34;;;;;;;4.67;1.87;;;;;;;;;;5073489;28;20336;-71
2022/03/14 10:47:02;;;;;;;2.37;1.30;;;;;;;;;;5072865;28;20261;-71
2022/03/14 10:49:29;;;;;;;2.60;1.10;;;;;;;;;;5053473;28;20264;-71
2022/03/14 10:51:57;;;;;;;2.80;1.73;;;;;;;;;;5053348;28;20282;-71
2022/03/14 10:54:24;;;;;;;4.77;1.40;;;;;;;;;;5048179;28;20307;-71
2022/03/14 10:57:20;;;;;;;3.10;1.50;;;;;;;;;;5048308;28;20733;-71
2022/03/14 10:59:54;;;;;;;4.78;1.85;;;;;;;;;;5035328;28;20285;-71
2022/03/14 11:02:22;;;;;;;3.30;1.50;;;;;;;;;;5048488;28;20029;-71
2022/03/14 11:04:49;;;;;;;4.73;1.60;;;;;;;;;;5053111;28;20782;-71
2022/03/14 11:07:19;;;;;;;4.77;1.50;;;;;;;;;;5052964;28;20312;-71
2022/03/14 11:09:47;;;;;;;5.33;2.00;;;;;;;;;;5053138;28;20784;-71
2022/03/14 11:12:18;;;;;;;5.40;1.80;;;;;;;;;;5053029;28;20262;-71
2022/03/14 11:15:14;;;;;;;3.43;1.50;;;;;;;;;;5051932;28;20586;-71
2022/03/14 11:17:40;;;;;;;;;;;;;;;;;;5040238;28;20293;-71
2022/03/14 11:20:07;;;;;;;3.43;1.33;;;;;;;;;;5067533;28;20021;-71
2022/03/14 11:22:34;;;;;;;2.47;1.33;;;;;;;;;;5067091;28;20281;-71
2022/03/14 11:25:01;;;;;;;6.03;1.93;;;;;;;;;;5069319;28;20259;-71
2022/03/14 11:27:29;;;;;;;4.93;1.50;;;;;;;;;;5072666;28;20257;-71
2022/03/14 11:30:02;;;;;;;2.93;1.57;;;;;;;;;;5072248;28;20281;-71
2022/03/14 11:32:28;;;;;;;6.60;1.70;;;;;;;;;;5072775;28;20341;-71
2022/03/14 11:34:55;;;;;;;5.53;1.80;;;;;;;;;;5072475;28;20253;-71
2022/03/14 11:37:22;;;;;;;3.20;1.33;;;;;;;;;;5070256;28;20806;-71
2022/03/14 11:39:49;;;;;;;2.30;1.20;;;;;;;;;;5067184;28;20322;-71
2022/03/14 11:42:16;;;;;;;2.20;1.20;;;;;;;;;;5067277;28;20285;-71
2022/03/14 11:44:46;;;;;;;4.60;1.93;;;;;;;;;;5067018;28;20677;-71
2022/03/14 11:47:14;;;;;;;3.40;1.50;;;;;;;;;;5067424;28;20311;-71
2022/03/14 11:49:42;;;;;;;3.40;1.77;;;;;;;;;;5052478;28;20801;-71
2022/03/14 11:52:09;;;;;;;8.77;3.33;;;;;;;;;;5052225;28;20370;-71
2022/03/14 11:54:45;;;;;;;13.23;4.83;;;;;;;;;;5052361;28;20258;-71
2022/03/14 11:57:12;;;;;;;6.00;3.20;;;;;;;;;;5052008;28;20246;-71
2022/03/14 11:59:39;;;;;;;6.70;2.50;;;;;;;;;;5049768;28;20323;-71
2022/03/14 12:02:06;;;;;;;3.73;2.03;;;;;;;;;;5047019;28;20250;-71
2022/03/14 12:04:39;;;;;;;4.30;2.27;;;;;;;;;;5047099;28;20769;-71
2022/03/14 12:07:07;;;;;;;20.10;8.63;;;;;;;;;;5047111;28;20258;-71
2022/03/14 12:09:34;;;;;;;8.20;4.27;;;;;;;;;;5048684;28;20290;-71
2022/03/14 12:12:24;;;;;;;6.67;3.67;;;;;;;;;;5052073;28;20285;-71
2022/03/14 12:14:56;;;;;;;7.50;3.63;;;;;;;;;;5044208;28;20298;-71
2022/03/14 12:17:24;;;;;;;7.33;3.23;;;;;;;;;;5053610;28;20270;-71
2022/03/14 12:19:52;;;;;;;7.20;3.23;;;;;;;;;;5071510;28;20257;-71
2022/03/14 12:22:25;;;;;;;7.23;2.67;;;;;;;;;;5068629;28;20322;-71
2022/03/14 12:24:52;;;;;;;8.13;3.40;;;;;;;;;;5067131;28;20265;-71
2022/03/14 12:27:19;;;;;;;7.83;3.57;;;;;;;;;;5066400;28;20265;-71
2022/03/14 12:29:46;;;;;;;6.07;3.57;;;;;;;;;;5066596;28;20284;-71
2022/03/14 12:32:26;;;;;;;9.03;4.07;;;;;;;;;;5069660;28;20345;-71
2022/03/14 12:35:02;;;;;;;12.50;4.27;;;;;;;;;;5076118;28;20267;-71
2022/03/14 12:37:44;;;;;;;13.00;4.33;;;;;;;;;;5076038;28;20257;-71
2022/03/14 12:40:19;;;;;;;12.50;4.67;;;;;;;;;;5075481;28;20664;-71
2022/03/14 12:42:49;;;;;;;8.83;3.17;;;;;;;;;;5075783;28;20682;-71
2022/03/14 12:45:24;;;;;;;7.90;3.33;;;;;;;;;;5070571;28;20349;-71
2022/03/14 12:47:58;;;;;;;12.90;3.17;;;;;;;;;;5068577;28;20270;-71
2022/03/14 12:50:44;;;;;;;10.20;4.00;;;;;;;;;;5070126;28;20297;-71
2022/03/14 12:53:11;;;;;;;7.70;3.03;;;;;;;;;;5071026;28;20257;-71
2022/03/14 12:55:43;;;;;;;5.20;2.73;;;;;;;;;;5075695;28;20526;-71
2022/03/14 12:58:13;;;;;;;8.43;4.13;;;;;;;;;;5075693;28;20762;-72
2022/03/14 13:00:40;;;;;;;15.10;4.00;;;;;;;;;;5074891;28;20291;-71
2022/03/14 13:03:07;;;;;;;7.60;3.23;;;;;;;;;;5075646;28;20261;-71
2022/03/14 13:05:34;;;;;;;6.60;2.93;;;;;;;;;;5074169;28;20301;-71
2022/03/14 13:08:04;;;;;;;15.27;3.30;;;;;;;;;;5070350;28;20257;-71
2022/03/14 13:10:46;;;;;;;7.73;3.10;;;;;;;;;;5070156;28;20289;-70
2022/03/14 13:13:14;;;;;;;12.53;3.30;;;;;;;;;;5070317;28;20280;-70
2022/03/14 13:15:42;;;;;;;6.27;2.43;;;;;;;;;;5060809;28;20357;-70
2022/03/14 13:18:18;;;;;;;10.73;3.50;;;;;;;;;;5055062;28;20270;-70
2022/03/14 13:20:45;;;;;;;6.97;2.73;;;;;;;;;;5055249;28;20282;-70
2022/03/14 13:23:15;;;;;;;11.83;2.90;;;;;;;;;;5055176;28;20250;-70
2022/03/14 13:25:49;;;;;;;5.37;2.47;;;;;;;;;;5054959;28;20270;-70
2022/03/14 13:28:28;;;;;;;6.47;3.10;;;;;;;;;;5052788;28;20644;-71
2022/03/14 13:30:56;;;;;;;6.67;2.90;;;;;;;;;;5049676;28;20348;-70
2022/03/14 13:33:24;;;;;;;8.30;3.23;;;;;;;;;;5049709;28;20342;-70
2022/03/14 13:35:51;;;;;;;7.77;3.47;;;;;;;;;;5049571;28;20337;-70
2022/03/14 13:38:32;;;;;;;11.33;3.60;;;;;;;;;;5051331;28;21127;-71
2022/03/14 13:40:58;;;;;;;5.40;2.53;;;;;;;;;;5054878;28;20254;-71
2022/03/14 13:43:28;;;;;;;8.63;2.80;;;;;;;;;;5053830;28;20798;-70
2022/03/14 13:46:13;;;;;;;11.40;3.50;;;;;;;;;;5063755;28;20265;-70
2022/03/14 13:48:50;;;;;;;7.00;2.30;;;;;;;;;;5074287;28;20508;-71
2022/03/14 13:51:16;;;;;;;5.33;2.33;;;;;;;;;;5069949;28;20039;-71
2022/03/14 13:53:47;;;;;;;5.47;2.70;;;;;;;;;;5069211;28;20043;-71
2022/03/14 13:56:14;;;;;;;8.80;3.50;;;;;;;;;;5058612;28;20111;-71
2022/03/14 13:58:51;;;;;;;4.17;2.13;;;;;;;;;;5049017;28;20048;-71
2022/03/14 14:01:17;;;;;;;6.03;3.20;;;;;;;;;;5053053;28;20017;-71
2022/03/14 14:03:48;;;;;;;7.77;3.10;;;;;;;;;;5054519;28;20025;-70
2022/03/14 14:06:18;;;;;;;5.67;3.23;;;;;;;;;;5054142;28;20501;-71
2022/03/14 14:08:45;;;;;;;5.33;2.03;;;;;;;;;;5054141;28;20484;-70
2022/03/14 14:11:23;;;;;;;6.57;2.53;;;;;;;;;;5054217;28;20044;-71
2022/03/14 14:13:50;;;;;;;5.77;3.17;;;;;;;;;;5049035;28;20112;-71
2022/03/14 14:16:22;;;;;;;5.20;1.90;;;;;;;;;;5048557;28;20039;-71
2022/03/14 14:19:07;;;;;;;4.97;2.00;;;;;;;;;;5048357;28;20035;-71
2022/03/14 14:21:33;;;;;;;4.65;2.08;;;;;;;;;;5048638;28;20064;-71
2022/03/14 14:24:00;;;;;;;4.40;2.00;;;;;;;;;;5054057;28;20467;-72
2022/03/14 14:26:31;;;;;;;9.10;2.43;;;;;;;;;;5064333;28;20036;-71
2022/03/14 14:28:58;;;;;;;6.00;2.57;;;;;;;;;;5073682;28;20070;-70
2022/03/14 14:31:24;;;;;;;6.87;2.30;;;;;;;;;;5073810;28;20035;-71
2022/03/14 14:33:52;;;;;;;5.77;1.90;;;;;;;;;;5073575;28;20028;-71
2022/03/14 14:36:19;;;;;;;4.47;2.07;;;;;;;;;;5068228;28;20029;-71
2022/03/14 14:38:45;;;;;;;6.03;2.00;;;;;;;;;;5068425;28;20021;-71
2022/03/14 14:41:13;;;;;;;5.40;1.93;;;;;;;;;;5068308;28;20129;-71
2022/03/14 14:43:42;;;;;;;5.20;2.07;;;;;;;;;;5068057;28;20032;-71
2022/03/14 14:46:09;;;;;;;4.90;1.70;;;;;;;;;;5073336;28;20066;-70
2022/03/14 14:48:36;;;;;;;9.13;2.13;;;;;;;;;;5073451;28;20415;-71
2022/03/14 14:51:04;;;;;;;6.53;2.00;;;;;;;;;;5073497;28;20033;-71